Time;durP1;ratioP1;P1;durP2;ratioP2;P2;SDS_P1;SDS_P2;PMS_P1;PMS_P2;Temp;Humidity;BMP_temperature;BMP_pressure;BME280_temperature;BME280_humidity;BME280_pressure;Samples;Min_cycle;Max_cycle;Signal;HPM_P1;HPM_P2
2023/12/05 00:00:05;;;;;;;7.80;4.25;;;;;;;1.45;100.00;96047.41;5029620;28;20051;-61
2023/12/05 00:02:38;;;;;;;6.47;3.63;;;;;;;1.44;100.00;96048.44;5043534;28;20542;-62
2023/12/05 00:05:05;;;;;;;6.75;3.38;;;;;;;1.50;100.00;96044.03;5043919;28;20146;-62
2023/12/05 00:07:33;;;;;;;6.25;3.42;;;;;;;1.49;100.00;96053.91;5032682;28;20551;-62
2023/12/05 00:10:00;;;;;;;6.22;3.47;;;;;;;1.50;100.00;96054.72;5049884;28;20103;-63
2023/12/05 00:12:27;;;;;;;7.35;3.70;;;;;;;1.51;100.00;96035.81;5041047;28;20048;-62
2023/12/05 00:14:53;;;;;;;7.32;3.95;;;;;;;1.49;100.00;96031.75;5037578;28;20543;-62
2023/12/05 00:17:20;;;;;;;6.32;4.03;;;;;;;1.43;100.00;96028.13;5044463;28;20041;-63
2023/12/05 00:19:46;;;;;;;6.18;3.88;;;;;;;1.44;100.00;96035.13;5047190;28;20035;-61
2023/12/05 00:22:14;;;;;;;6.38;3.40;;;;;;;1.54;100.00;96031.88;5039482;28;20534;-62
2023/12/05 00:24:40;;;;;;;6.35;3.15;;;;;;;1.61;100.00;96029.09;5043055;28;20047;-62
2023/12/05 00:27:07;;;;;;;7.55;3.90;;;;;;;1.59;100.00;96032.03;5043277;28;20110;-63
2023/12/05 00:29:37;;;;;;;7.10;4.00;;;;;;;1.54;100.00;96037.22;5045351;28;20044;-62
2023/12/05 00:32:04;;;;;;;6.50;3.47;;;;;;;1.60;100.00;96038.16;5045661;28;20045;-62
2023/12/05 00:34:30;;;;;;;7.35;3.80;;;;;;;1.60;100.00;96038.97;5048849;28;20037;-62
2023/12/05 00:36:57;;;;;;;6.65;3.33;;;;;;;1.55;100.00;96036.19;5032167;28;20049;-63
2023/12/05 00:39:23;;;;;;;6.45;3.60;;;;;;;1.49;100.00;96037.91;5029830;28;20049;-63
2023/12/05 00:41:50;;;;;;;7.18;3.72;;;;;;;1.47;100.00;96041.84;5048935;28;20415;-63
2023/12/05 00:44:16;;;;;;;4.82;2.95;;;;;;;1.46;100.00;96040.19;5041889;28;20460;-59
2023/12/05 00:46:43;;;;;;;6.32;3.58;;;;;;;1.43;100.00;96036.97;5044853;28;20048;-62
2023/12/05 00:49:09;;;;;;;5.40;3.33;;;;;;;1.48;100.00;96049.63;5039154;28;20040;-61
2023/12/05 00:51:36;;;;;;;5.55;3.22;;;;;;;1.50;100.00;96047.53;5034615;28;20120;-63
2023/12/05 00:54:03;;;;;;;6.53;3.28;;;;;;;1.56;100.00;96053.81;5041968;28;20503;-62
2023/12/05 00:56:30;;;;;;;6.10;3.63;;;;;;;1.58;100.00;96065.06;5030513;28;20457;-60
2023/12/05 00:58:56;;;;;;;5.90;3.05;;;;;;;1.69;100.00;96061.63;5029746;28;20042;-63
2023/12/05 01:01:23;;;;;;;6.05;3.22;;;;;;;1.61;100.00;96063.78;5047433;28;20144;-62
2023/12/05 01:03:54;;;;;;;6.75;3.38;;;;;;;1.64;100.00;96068.69;5029455;28;20080;-61
2023/12/05 01:06:21;;;;;;;6.47;3.42;;;;;;;1.64;100.00;96069.50;5038375;28;20119;-61
2023/12/05 01:08:47;;;;;;;6.38;3.30;;;;;;;1.64;100.00;96071.34;5038048;28;20896;-60
2023/12/05 01:11:16;;;;;;;6.07;3.13;;;;;;;1.66;100.00;96077.28;5041984;28;20096;-61
2023/12/05 01:13:46;;;;;;;6.28;3.90;;;;;;;1.63;100.00;96081.22;5046334;28;20112;-62
2023/12/05 01:16:12;;;;;;;8.35;4.05;;;;;;;1.68;100.00;96065.34;5036454;28;20049;-62
2023/12/05 01:18:39;;;;;;;7.15;3.60;;;;;;;1.83;100.00;96069.44;5038221;28;20542;-60
2023/12/05 01:21:06;;;;;;;5.72;3.40;;;;;;;1.79;100.00;96068.25;5038177;28;20033;-61
2023/12/05 01:23:32;;;;;;;6.72;3.63;;;;;;;1.72;100.00;96067.53;5038301;28;20122;-61
2023/12/05 01:25:59;;;;;;;6.60;3.60;;;;;;;1.68;100.00;96069.84;5052447;28;20044;-62
2023/12/05 01:28:25;;;;;;;6.70;3.67;;;;;;;1.61;100.00;96069.97;5040056;28;20056;-62
2023/12/05 01:30:52;;;;;;;6.85;3.80;;;;;;;1.63;100.00;96057.22;5044930;28;20436;-62
2023/12/05 01:33:18;;;;;;;7.30;3.78;;;;;;;1.62;100.00;96066.25;5044606;28;20076;-63
2023/12/05 01:35:45;;;;;;;7.45;4.35;;;;;;;1.60;100.00;96073.66;5036397;28;20037;-63
2023/12/05 01:38:11;;;;;;;8.27;4.30;;;;;;;1.63;100.00;96075.91;5049948;28;20051;-62
2023/12/05 01:40:38;;;;;;;7.00;4.03;;;;;;;1.61;100.00;96067.28;5043335;28;20044;-62
2023/12/05 01:43:04;;;;;;;6.30;3.80;;;;;;;1.67;100.00;96068.25;5043554;28;20119;-62
2023/12/05 01:45:31;;;;;;;7.13;3.53;;;;;;;1.63;100.00;96064.41;5039567;28;20060;-63
2023/12/05 01:47:58;;;;;;;7.50;4.15;;;;;;;1.67;100.00;96070.91;5045679;28;20059;-62
2023/12/05 01:50:27;;;;;;;7.68;3.53;;;;;;;1.77;100.00;96059.69;5029406;28;20037;-62
2023/12/05 01:52:59;;;;;;;6.80;3.63;;;;;;;1.77;100.00;96065.03;5039102;28;20621;-61
2023/12/05 01:55:28;;;;;;;7.30;3.58;;;;;;;1.73;100.00;96061.97;5037372;28;20036;-63
2023/12/05 01:57:57;;;;;;;8.65;4.65;;;;;;;1.65;100.00;96057.78;5037389;28;20122;-62
2023/12/05 02:00:25;;;;;;;7.47;4.15;;;;;;;1.58;100.00;96054.41;5047081;28;20507;-62
2023/12/05 02:02:52;;;;;;;8.43;4.18;;;;;;;1.51;100.00;96053.69;5035227;28;20052;-61
2023/12/05 02:05:18;;;;;;;6.95;3.95;;;;;;;1.55;100.00;96057.53;5035683;28;20480;-61
2023/12/05 02:07:45;;;;;;;7.32;4.40;;;;;;;1.59;100.00;96063.22;5041966;28;20048;-62
2023/12/05 02:10:12;;;;;;;9.25;5.15;;;;;;;1.64;100.00;96064.19;5038294;28;20051;-60
2023/12/05 02:12:38;;;;;;;8.57;4.82;;;;;;;1.59;100.00;96064.03;5045265;28;20037;-61
2023/12/05 02:15:07;;;;;;;8.40;4.65;;;;;;;1.47;100.00;96060.53;5039143;28;20116;-62
2023/12/05 02:17:55;;;;;;;6.65;4.03;;;;;;;1.34;100.00;96066.84;5040724;28;20548;-63
2023/12/05 02:20:30;;;;;;;8.57;4.65;;;;;;;1.32;100.00;96067.06;5039504;28;20052;-62
2023/12/05 02:23:25;;;;;;;7.72;4.65;;;;;;;1.43;100.00;96060.13;5034359;28;20041;-62
2023/12/05 02:25:57;;;;;;;7.45;4.40;;;;;;;1.39;100.00;96064.28;5037498;28;20115;-63
2023/12/05 02:28:24;;;;;;;8.93;4.90;;;;;;;1.28;100.00;96072.03;5039124;28;20432;-64
2023/12/05 02:30:56;;;;;;;10.13;5.00;;;;;;;1.20;100.00;96074.19;5032109;28;20049;-63
2023/12/05 02:33:23;;;;;;;9.43;5.63;;;;;;;1.10;100.00;96078.19;5033257;28;20049;-62
2023/12/05 02:36:00;;;;;;;9.38;5.47;;;;;;;1.06;100.00;96084.22;5033978;28;20060;-63
2023/12/05 02:38:39;;;;;;;9.32;5.45;;;;;;;1.01;100.00;96079.53;5044089;28;20041;-59
2023/12/05 02:41:15;;;;;;;10.02;5.55;;;;;;;0.95;100.00;96086.56;5049310;28;20041;-62
2023/12/05 02:43:49;;;;;;;8.88;6.05;;;;;;;0.97;100.00;96075.69;5033224;28;20041;-61
2023/12/05 02:46:17;;;;;;;9.95;5.40;;;;;;;0.97;100.00;96086.34;5042264;28;20052;-60
2023/12/05 02:48:44;;;;;;;12.93;6.35;;;;;;;0.97;100.00;96094.34;5037268;28;20041;-59
2023/12/05 02:51:11;;;;;;;11.48;5.63;;;;;;;0.94;100.00;96108.09;5041225;28;20050;-58
2023/12/05 02:53:38;;;;;;;10.82;6.18;;;;;;;1.01;100.00;96106.19;5037970;28;20041;-59
2023/12/05 02:56:05;;;;;;;11.85;6.07;;;;;;;1.06;100.00;96111.66;5050420;28;20052;-63
2023/12/05 02:58:31;;;;;;;13.27;5.97;;;;;;;1.16;100.00;96111.16;5041744;28;20041;-61
2023/12/05 03:00:58;;;;;;;12.15;5.50;;;;;;;1.14;100.00;96106.03;5030950;28;20119;-61
2023/12/05 03:03:25;;;;;;;10.85;5.75;;;;;;;1.15;100.00;96109.53;5039037;28;20536;-63
2023/12/05 03:05:52;;;;;;;9.95;5.85;;;;;;;1.04;100.00;96116.41;5034931;28;20041;-62
2023/12/05 03:08:18;;;;;;;11.98;5.80;;;;;;;0.96;100.00;96106.84;5034997;28;20135;-61
2023/12/05 03:10:45;;;;;;;10.20;5.95;;;;;;;0.99;100.00;96111.75;5027057;28;20034;-61
2023/12/05 03:13:25;;;;;;;11.32;6.40;;;;;;;0.92;100.00;96105.66;5034592;28;20419;-62
2023/12/05 03:15:51;;;;;;;9.63;5.45;;;;;;;1.03;100.00;96109.44;5034052;28;20091;-62
2023/12/05 03:18:18;;;;;;;10.88;6.50;;;;;;;1.02;100.00;96115.81;5038589;28;20040;-61
2023/12/05 03:20:44;;;;;;;8.73;5.25;;;;;;;1.06;100.00;96116.19;5042053;28;20034;-62
2023/12/05 03:23:11;;;;;;;10.70;6.80;;;;;;;1.04;100.00;96106.53;5031755;28;20519;-63
2023/12/05 03:25:38;;;;;;;9.75;5.05;;;;;;;1.00;100.00;96112.56;5037213;28;20466;-61
2023/12/05 03:28:04;;;;;;;9.98;5.38;;;;;;;0.94;100.00;96110.78;5045743;28;20048;-59
2023/12/05 03:30:31;;;;;;;10.13;5.30;;;;;;;0.88;100.00;96117.78;5027374;28;20137;-60
2023/12/05 03:32:57;;;;;;;11.43;5.40;;;;;;;0.99;100.00;96127.72;5033506;28;20143;-62
2023/12/05 03:35:24;;;;;;;10.00;5.20;;;;;;;1.01;100.00;96111.53;5032320;28;20052;-60
2023/12/05 03:37:50;;;;;;;9.52;4.95;;;;;;;1.00;100.00;96108.03;5038920;28;20052;-60
2023/12/05 03:40:17;;;;;;;10.02;5.30;;;;;;;1.03;100.00;96114.75;5041786;28;20045;-61
2023/12/05 03:42:43;;;;;;;11.35;4.80;;;;;;;1.00;100.00;96112.56;5037961;28;20396;-61
2023/12/05 03:45:10;;;;;;;10.18;5.10;;;;;;;1.17;100.00;96113.59;5046744;28;20128;-59
2023/12/05 03:47:36;;;;;;;9.27;4.40;;;;;;;1.37;100.00;96107.19;5043356;28;20033;-60
2023/12/05 03:50:04;;;;;;;7.47;4.15;;;;;;;1.47;100.00;96111.19;5059711;28;20547;-61
2023/12/05 03:52:30;;;;;;;8.18;4.45;;;;;;;1.58;100.00;96112.28;5050436;28;20566;-59
2023/12/05 03:54:57;;;;;;;9.45;4.78;;;;;;;1.59;100.00;96104.06;5041443;28;20049;-59
2023/12/05 03:57:23;;;;;;;7.57;3.75;;;;;;;1.75;100.00;96105.28;5043304;28;20045;-61
2023/12/05 03:59:50;;;;;;;8.23;4.22;;;;;;;1.71;100.00;96105.94;5029144;28;20080;-61
2023/12/05 04:02:16;;;;;;;8.43;4.50;;;;;;;1.68;100.00;96107.22;5040255;28;20041;-59
2023/12/05 04:04:43;;;;;;;6.88;3.85;;;;;;;1.84;100.00;96111.09;5049404;28;20059;-62
2023/12/05 04:07:10;;;;;;;7.80;4.05;;;;;;;1.83;100.00;96114.81;5043786;28;20087;-61
2023/12/05 04:09:36;;;;;;;8.88;4.40;;;;;;;1.81;100.00;96117.72;5042173;28;20095;-61
2023/12/05 04:12:03;;;;;;;7.25;3.92;;;;;;;1.78;100.00;96122.69;5046490;28;20037;-62
2023/12/05 04:14:30;;;;;;;8.65;3.92;;;;;;;1.78;100.00;96123.53;5032704;28;20038;-62
2023/12/05 04:16:56;;;;;;;6.60;3.33;;;;;;;1.90;100.00;96125.41;5041568;28;20094;-60
2023/12/05 04:19:23;;;;;;;7.13;3.50;;;;;;;2.06;100.00;96131.94;5049298;28;20045;-62
2023/12/05 04:21:50;;;;;;;6.85;3.75;;;;;;;2.15;100.00;96135.09;5034998;28;20073;-62
2023/12/05 04:24:16;;;;;;;6.75;3.55;;;;;;;2.03;100.00;96135.09;5035269;28;20049;-61
2023/12/05 04:26:43;;;;;;;7.00;4.03;;;;;;;1.92;100.00;96124.13;5038524;28;20037;-63
2023/12/05 04:29:10;;;;;;;8.98;3.88;;;;;;;1.84;100.00;96134.31;5044330;28;20033;-61
2023/12/05 04:31:36;;;;;;;6.20;3.30;;;;;;;1.87;100.00;96133.84;5038022;28;20040;-62
2023/12/05 04:34:03;;;;;;;7.95;3.70;;;;;;;2.04;100.00;96136.69;5037133;28;20037;-62
2023/12/05 04:36:30;;;;;;;5.68;3.00;;;;;;;2.20;100.00;96138.72;5051660;28;20045;-61
2023/12/05 04:38:56;;;;;;;5.95;3.00;;;;;;;2.35;100.00;96134.78;5045348;28;20119;-61
2023/12/05 04:41:23;;;;;;;7.25;3.38;;;;;;;2.29;100.00;96130.38;5039492;28;20052;-62
2023/12/05 04:43:50;;;;;;;6.88;3.22;;;;;;;2.29;100.00;96122.38;5035506;28;20049;-61
2023/12/05 04:46:16;;;;;;;5.78;2.83;;;;;;;2.30;100.00;96132.00;5040293;28;20049;-62
2023/12/05 04:48:43;;;;;;;7.68;3.67;;;;;;;2.21;100.00;96118.16;5039628;28;20060;-62
2023/12/05 04:51:09;;;;;;;6.03;3.60;;;;;;;2.06;100.00;96121.25;5039285;28;20121;-61
2023/12/05 04:53:36;;;;;;;7.65;3.70;;;;;;;2.00;100.00;96124.84;5040577;28;20397;-61
2023/12/05 04:56:03;;;;;;;6.47;3.38;;;;;;;1.90;100.00;96118.22;5034035;28;20045;-65
2023/12/05 04:58:29;;;;;;;7.72;3.72;;;;;;;1.98;100.00;96124.28;5040434;28;20041;-62
2023/12/05 05:00:56;;;;;;;6.63;3.05;;;;;;;2.12;100.00;96119.53;5038981;28;20640;-63
2023/12/05 05:03:24;;;;;;;6.72;3.35;;;;;;;1.98;100.00;96110.94;5042174;28;20540;-63
2023/12/05 05:05:51;;;;;;;6.55;3.42;;;;;;;1.85;100.00;96122.59;5050010;28;20127;-62
2023/12/05 05:08:17;;;;;;;7.13;3.70;;;;;;;1.86;100.00;96122.38;5048524;28;20090;-63
2023/12/05 05:10:44;;;;;;;5.85;3.33;;;;;;;1.92;100.00;96118.78;5045047;28;20061;-62
2023/12/05 05:13:10;;;;;;;6.10;3.10;;;;;;;1.89;100.00;96115.78;5043496;28;20109;-61
2023/12/05 05:15:37;;;;;;;6.20;3.03;;;;;;;1.94;100.00;96124.72;5038927;28;20038;-62
2023/12/05 05:18:04;;;;;;;8.77;2.83;;;;;;;2.07;100.00;96131.72;5046241;28;20040;-63
2023/12/05 05:20:30;;;;;;;5.35;2.97;;;;;;;2.14;100.00;96138.81;5045563;28;20047;-62
2023/12/05 05:22:57;;;;;;;6.80;3.20;;;;;;;1.92;100.00;96126.00;5042858;28;20095;-60
2023/12/05 05:25:24;;;;;;;6.63;2.92;;;;;;;1.95;100.00;96129.00;5037035;28;20048;-62
2023/12/05 05:27:50;;;;;;;8.85;2.90;;;;;;;2.06;100.00;96129.25;5043113;28;20041;-62
2023/12/05 05:30:17;;;;;;;6.30;3.55;;;;;;;2.14;100.00;96134.28;5040395;28;20537;-62
2023/12/05 05:32:44;;;;;;;6.22;2.90;;;;;;;2.05;100.00;96138.31;5037283;28;20156;-63
2023/12/05 05:35:10;;;;;;;6.78;2.55;;;;;;;2.11;100.00;96132.09;5040411;28;20128;-60
2023/12/05 05:37:37;;;;;;;6.22;2.35;;;;;;;2.12;100.00;96138.22;5048937;28;20099;-62
2023/12/05 05:40:06;;;;;;;5.45;2.70;;;;;;;2.11;100.00;96128.59;5036665;28;20669;-62
2023/12/05 05:42:33;;;;;;;7.60;2.45;;;;;;;2.17;100.00;96122.31;5034178;28;20041;-61
2023/12/05 05:44:59;;;;;;;8.35;2.90;;;;;;;2.29;100.00;96136.53;5044413;28;20056;-62
2023/12/05 05:47:26;;;;;;;7.90;3.00;;;;;;;2.18;100.00;96132.78;5047893;28;20267;-59
2023/12/05 05:49:52;;;;;;;5.15;2.70;;;;;;;2.15;100.00;96135.94;5041645;28;20042;-63
2023/12/05 05:52:19;;;;;;;8.68;2.50;;;;;;;2.12;100.00;96140.91;5036129;28;20110;-63
2023/12/05 05:54:49;;;;;;;5.70;2.58;;;;;;;2.20;100.00;96136.06;5034568;28;20036;-63
2023/12/05 05:57:16;;;;;;;7.38;2.85;;;;;;;2.24;100.00;96146.28;5054070;28;20059;-62
2023/12/05 05:59:43;;;;;;;6.43;2.33;;;;;;;2.15;100.00;96140.44;5043016;28;20480;-61
2023/12/05 06:02:11;;;;;;;7.25;3.30;;;;;;;2.14;100.00;96144.16;5034338;28;20047;-60
2023/12/05 06:04:41;;;;;;;5.25;2.63;;;;;;;2.14;100.00;96139.63;5046486;28;20102;-62
2023/12/05 06:07:07;;;;;;;7.10;3.00;;;;;;;2.16;100.00;96134.88;5036163;28;20106;-61
2023/12/05 06:09:34;;;;;;;6.63;2.47;;;;;;;2.17;100.00;96135.69;5040671;28;20037;-61
2023/12/05 06:12:03;;;;;;;4.65;2.25;;;;;;;2.11;100.00;96137.44;5041856;28;20048;-62
2023/12/05 06:14:30;;;;;;;6.13;2.33;;;;;;;2.01;100.00;96132.63;5049903;28;20041;-62
2023/12/05 06:16:56;;;;;;;5.65;2.28;;;;;;;1.98;100.00;96133.09;5040321;28;20511;-62
2023/12/05 06:19:24;;;;;;;4.70;2.53;;;;;;;1.90;100.00;96136.06;5028631;28;20425;-61
2023/12/05 06:21:50;;;;;;;6.78;2.38;;;;;;;1.75;100.00;96134.63;5043211;28;20060;-62
2023/12/05 06:24:17;;;;;;;8.35;2.30;;;;;;;1.81;100.00;96140.94;5032292;28;20038;-62
2023/12/05 06:26:44;;;;;;;5.75;2.42;;;;;;;1.75;100.00;96136.47;5040443;28;20068;-59
2023/12/05 06:29:10;;;;;;;12.35;2.58;;;;;;;1.78;100.00;96131.53;5042967;28;20528;-60
2023/12/05 06:31:38;;;;;;;7.60;2.35;;;;;;;1.82;100.00;96137.22;5032395;28;20408;-63
2023/12/05 06:34:06;;;;;;;5.65;2.17;;;;;;;1.93;100.00;96140.97;5030015;28;20053;-63
2023/12/05 06:36:32;;;;;;;6.40;2.15;;;;;;;1.95;100.00;96146.88;5031844;28;20404;-63
2023/12/05 06:38:59;;;;;;;4.47;1.98;;;;;;;2.13;100.00;96146.00;5035838;28;20044;-63
2023/12/05 06:41:26;;;;;;;4.88;2.33;;;;;;;2.19;100.00;96153.13;5031668;28;20053;-62
2023/12/05 06:43:52;;;;;;;5.03;1.88;;;;;;;2.27;100.00;96157.31;5041316;28;20441;-63
2023/12/05 06:46:19;;;;;;;5.97;2.50;;;;;;;2.25;100.00;96166.59;5034335;28;20619;-62
2023/12/05 06:48:48;;;;;;;4.53;2.20;;;;;;;2.24;100.00;96157.78;5032745;28;20050;-61
2023/12/05 06:51:18;;;;;;;5.22;2.35;;;;;;;2.05;100.00;96163.19;5032293;28;20061;-62
2023/12/05 06:53:48;;;;;;;5.32;1.83;;;;;;;2.05;100.00;96159.69;5040796;28;20046;-61
2023/12/05 06:56:18;;;;;;;;;;;;;;;1.92;100.00;96166.03;5039761;28;20036;-63
2023/12/05 06:58:45;;;;;;;5.03;1.98;;;;;;;1.94;100.00;96158.59;5032193;28;19929;-59
2023/12/05 07:01:12;;;;;;;4.85;2.15;;;;;;;1.96;100.00;96169.88;5041264;28;20036;-60
2023/12/05 07:03:38;;;;;;;5.05;2.50;;;;;;;2.06;100.00;96172.81;5041529;28;20050;-59
2023/12/05 07:06:16;;;;;;;4.95;2.17;;;;;;;1.95;100.00;96173.56;5035438;28;20072;-60
2023/12/05 07:08:43;;;;;;;5.00;2.38;;;;;;;1.86;100.00;96182.94;5030567;28;20130;-62
2023/12/05 07:11:09;;;;;;;6.05;2.70;;;;;;;1.88;100.00;96192.34;5033940;28;20032;-62
2023/12/05 07:13:36;;;;;;;6.18;2.03;;;;;;;2.03;100.00;96194.63;5028943;28;20045;-62
2023/12/05 07:16:02;;;;;;;4.70;2.03;;;;;;;2.10;100.00;96199.06;5032540;28;20120;-60
2023/12/05 07:18:29;;;;;;;6.63;2.67;;;;;;;2.19;100.00;96195.88;5033266;28;20063;-62
2023/12/05 07:20:56;;;;;;;6.05;2.15;;;;;;;2.21;100.00;96196.44;5039110;28;20047;-62
2023/12/05 07:23:22;;;;;;;7.78;2.50;;;;;;;2.27;100.00;96199.22;5041592;28;20038;-62
2023/12/05 07:25:50;;;;;;;5.15;2.00;;;;;;;2.20;100.00;96199.31;5031555;28;20099;-61
2023/12/05 07:28:17;;;;;;;5.20;2.65;;;;;;;2.20;100.00;96212.69;5038934;28;20180;-61
2023/12/05 07:30:44;;;;;;;5.25;2.15;;;;;;;2.21;100.00;96207.13;5041453;28;20106;-62
2023/12/05 07:33:10;;;;;;;6.15;2.25;;;;;;;2.19;100.00;96211.06;5028693;28;20068;-61
2023/12/05 07:35:37;;;;;;;6.65;2.30;;;;;;;2.29;100.00;96203.31;5029233;28;20147;-62
2023/12/05 07:38:03;;;;;;;4.85;2.22;;;;;;;2.29;100.00;96219.31;5041831;28;20098;-62
2023/12/05 07:40:32;;;;;;;5.90;2.22;;;;;;;2.19;100.00;96219.06;5042039;28;20131;-62
2023/12/05 07:42:58;;;;;;;3.63;1.98;;;;;;;2.30;100.00;96217.47;5034529;28;20478;-62
2023/12/05 07:45:25;;;;;;;5.88;1.92;;;;;;;2.29;100.00;96223.88;5035457;28;20054;-57
2023/12/05 07:47:52;;;;;;;7.22;2.33;;;;;;;2.39;100.00;96226.00;5036183;28;20125;-57
2023/12/05 07:50:19;;;;;;;6.47;2.50;;;;;;;2.43;100.00;96224.50;5043261;28;20041;-55
2023/12/05 07:52:50;;;;;;;5.95;2.55;;;;;;;2.43;100.00;96222.63;5042792;28;20122;-59
2023/12/05 07:55:20;;;;;;;5.32;2.22;;;;;;;2.36;100.00;96231.78;5038642;28;20601;-59
2023/12/05 07:57:47;;;;;;;3.97;1.92;;;;;;;2.45;100.00;96236.59;5032823;28;20688;-58
2023/12/05 08:00:16;;;;;;;7.78;2.30;;;;;;;2.43;100.00;96227.97;5032161;28;20052;-57
2023/12/05 08:02:43;;;;;;;5.57;1.80;;;;;;;2.50;100.00;96229.75;5036772;28;20103;-54
2023/12/05 08:05:10;;;;;;;7.75;1.90;;;;;;;2.55;100.00;96229.88;5032436;28;20068;-56
2023/12/05 08:07:38;;;;;;;4.22;1.67;;;;;;;2.69;100.00;96227.81;5044709;28;20041;-59
2023/12/05 08:10:06;;;;;;;6.32;1.98;;;;;;;2.80;100.00;96232.34;5036852;28;20470;-59
2023/12/05 08:12:33;;;;;;;4.53;2.22;;;;;;;2.85;100.00;96229.78;5038909;28;20508;-54
2023/12/05 08:15:03;;;;;;;4.45;1.70;;;;;;;2.90;100.00;96230.97;5035355;28;20596;-57
2023/12/05 08:17:30;;;;;;;8.05;2.20;;;;;;;3.01;100.00;96232.00;5040015;28;20092;-57
2023/12/05 08:19:56;;;;;;;5.43;1.80;;;;;;;3.02;100.00;96231.00;5033944;28;20659;-56
2023/12/05 08:22:23;;;;;;;5.30;1.90;;;;;;;3.02;100.00;96234.47;5039695;28;20114;-59
2023/12/05 08:24:50;;;;;;;7.43;2.15;;;;;;;3.04;100.00;96231.56;5033864;28;20048;-59
2023/12/05 08:27:16;;;;;;;3.97;1.52;;;;;;;3.03;100.00;96238.78;5043111;28;20049;-57
2023/12/05 08:29:43;;;;;;;5.10;1.63;;;;;;;3.17;100.00;96231.31;5034787;28;20115;-58
2023/12/05 08:32:11;;;;;;;4.13;1.50;;;;;;;3.16;100.00;96234.25;5045382;28;20060;-59
2023/12/05 08:34:38;;;;;;;3.58;1.38;;;;;;;3.26;100.00;96231.81;5042150;28;20048;-60
2023/12/05 08:37:05;;;;;;;4.35;1.52;;;;;;;3.28;100.00;96234.25;5039075;28;20389;-57
2023/12/05 08:39:32;;;;;;;7.03;2.55;;;;;;;3.32;100.00;96230.06;5038458;28;20045;-59
2023/12/05 08:41:59;;;;;;;4.05;1.40;;;;;;;3.39;100.00;96236.09;5039848;28;20595;-57
2023/12/05 08:44:27;;;;;;;6.18;2.25;;;;;;;3.42;100.00;96242.88;5038129;28;20536;-58
2023/12/05 08:46:53;;;;;;;2.75;1.40;;;;;;;3.45;100.00;96253.91;5039686;28;20051;-62
2023/12/05 08:49:20;;;;;;;3.55;1.65;;;;;;;3.52;100.00;96259.13;5021278;28;20157;-62
2023/12/05 08:51:46;;;;;;;4.43;1.60;;;;;;;3.55;100.00;96255.16;5030472;28;20640;-61
2023/12/05 08:54:13;;;;;;;5.43;1.70;;;;;;;3.58;100.00;96249.34;5042180;28;20076;-62
2023/12/05 08:56:40;;;;;;;4.35;1.73;;;;;;;3.64;100.00;96256.44;5041363;28;20045;-62
2023/12/05 08:59:06;;;;;;;5.68;2.60;;;;;;;3.62;100.00;96261.22;5047698;28;20056;-61
2023/12/05 09:01:33;;;;;;;7.07;1.63;;;;;;;3.63;100.00;96261.00;5040941;28;20710;-61
2023/12/05 09:03:59;;;;;;;4.30;1.70;;;;;;;3.63;100.00;96258.31;5040526;28;20043;-61
2023/12/05 09:06:26;;;;;;;6.00;2.47;;;;;;;3.60;100.00;96258.78;5039408;28;20131;-62
2023/12/05 09:08:54;;;;;;;3.88;1.45;;;;;;;3.60;100.00;96255.28;5030751;28;20132;-62
2023/12/05 09:11:21;;;;;;;5.57;1.95;;;;;;;3.61;100.00;96248.91;5037441;28;20041;-62
2023/12/05 09:13:47;;;;;;;5.43;1.73;;;;;;;3.64;100.00;96249.22;5041805;28;20028;-61
2023/12/05 09:16:14;;;;;;;2.90;1.50;;;;;;;3.72;100.00;96247.25;5040857;28;20048;-62
2023/12/05 09:18:40;;;;;;;7.38;3.08;;;;;;;3.71;100.00;96249.09;5039389;28;20581;-61
2023/12/05 09:21:08;;;;;;;5.55;2.15;;;;;;;3.73;100.00;96254.22;5041690;28;20051;-61
2023/12/05 09:23:34;;;;;;;3.00;0.93;;;;;;;3.89;100.00;96255.34;5043382;28;20049;-61
2023/12/05 09:26:01;;;;;;;5.18;1.10;;;;;;;3.89;100.00;96258.03;5033533;28;20045;-61
2023/12/05 09:28:28;;;;;;;5.32;1.88;;;;;;;3.96;100.00;96263.25;5041273;28;20683;-62
2023/12/05 09:30:55;;;;;;;3.88;1.67;;;;;;;3.96;100.00;96258.72;5039739;28;20138;-61
2023/12/05 09:33:21;;;;;;;4.00;1.60;;;;;;;4.00;100.00;96273.25;5046940;28;20763;-62
2023/12/05 09:35:48;;;;;;;5.10;1.77;;;;;;;3.90;100.00;96281.06;5043492;28;20047;-61
2023/12/05 09:38:14;;;;;;;3.95;1.17;;;;;;;3.84;100.00;96279.34;5032400;28;20049;-59
2023/12/05 09:40:41;;;;;;;3.90;1.50;;;;;;;3.77;100.00;96282.94;5035539;28;20050;-60
2023/12/05 09:43:08;;;;;;;6.13;2.25;;;;;;;3.82;100.00;96281.44;5039328;28;20204;-62
2023/12/05 09:45:39;;;;;;;3.85;1.55;;;;;;;3.87;100.00;96274.31;5045978;28;20103;-59
2023/12/05 09:48:08;;;;;;;;;;;;;;;3.90;100.00;96273.84;5047781;28;20058;-61
2023/12/05 09:50:36;;;;;;;7.97;3.75;;;;;;;3.89;100.00;96274.91;5033113;28;19920;-60
2023/12/05 09:53:05;;;;;;;10.70;4.40;;;;;;;3.90;100.00;96273.03;5037518;28;20456;-61
2023/12/05 09:55:34;;;;;;;6.30;2.53;;;;;;;4.01;100.00;96266.03;5033027;28;20713;-61
2023/12/05 09:58:01;;;;;;;6.97;2.08;;;;;;;4.05;100.00;96269.06;5045468;28;20526;-61
2023/12/05 10:00:29;;;;;;;5.35;2.78;;;;;;;4.06;100.00;96270.69;5041888;28;20052;-60
2023/12/05 10:03:00;;;;;;;5.35;2.58;;;;;;;4.11;100.00;96260.06;5037600;28;20171;-58
2023/12/05 10:05:30;;;;;;;6.55;1.92;;;;;;;4.12;100.00;96265.19;5039945;28;20137;-59
2023/12/05 10:07:57;;;;;;;2.78;1.20;;;;;;;4.15;100.00;96267.41;5033363;28;20047;-61
2023/12/05 10:10:25;;;;;;;4.50;1.45;;;;;;;4.16;100.00;96263.66;5038594;28;20076;-58
2023/12/05 10:12:53;;;;;;;5.55;1.52;;;;;;;4.11;100.00;96266.25;5035094;28;20049;-61
2023/12/05 10:15:20;;;;;;;5.93;1.45;;;;;;;4.16;100.00;96263.66;5031282;28;20037;-61
2023/12/05 10:17:48;;;;;;;4.82;1.70;;;;;;;4.18;100.00;96258.06;5040364;28;20052;-61
2023/12/05 10:20:15;;;;;;;3.25;1.10;;;;;;;4.27;100.00;96251.28;5032896;28;20048;-62
2023/12/05 10:22:42;;;;;;;4.85;1.00;;;;;;;4.29;100.00;96254.53;5049351;28;20083;-61
2023/12/05 10:25:10;;;;;;;3.95;1.20;;;;;;;4.42;100.00;96258.78;5047259;28;20111;-62
2023/12/05 10:27:38;;;;;;;6.22;2.83;;;;;;;4.34;100.00;96258.34;5039605;28;20667;-61
2023/12/05 10:30:05;;;;;;;3.95;1.45;;;;;;;4.29;100.00;96243.81;5039302;28;20045;-61
2023/12/05 10:32:32;;;;;;;2.22;1.10;;;;;;;4.38;100.00;96244.22;5028442;28;20619;-61
2023/12/05 10:35:01;;;;;;;6.47;1.90;;;;;;;4.39;100.00;96250.41;5032704;28;20045;-61
2023/12/05 10:37:28;;;;;;;4.30;1.70;;;;;;;4.38;100.00;96243.41;5019399;28;20068;-61
2023/12/05 10:39:58;;;;;;;5.60;1.73;;;;;;;4.52;100.00;96238.56;5033107;28;20099;-64
2023/12/05 10:42:26;;;;;;;3.75;1.52;;;;;;;4.59;100.00;96247.28;5033169;28;20025;-65
2023/12/05 10:44:52;;;;;;;5.35;2.03;;;;;;;4.67;100.00;96243.38;5038188;28;20824;-62
2023/12/05 10:47:19;;;;;;;4.53;1.65;;;;;;;4.73;100.00;96239.75;5043467;28;20033;-63
2023/12/05 10:49:47;;;;;;;2.03;0.60;;;;;;;4.82;100.00;96235.59;5035494;28;20045;-60
2023/12/05 10:52:15;;;;;;;2.50;0.90;;;;;;;4.94;100.00;96240.88;5038915;28;20067;-61
2023/12/05 10:54:43;;;;;;;3.83;0.80;;;;;;;4.92;100.00;96239.50;5031758;28;20052;-64
2023/12/05 10:57:09;;;;;;;2.47;0.95;;;;;;;4.90;100.00;96234.38;5037888;28;20727;-61
2023/12/05 10:59:38;;;;;;;2.63;0.90;;;;;;;4.93;100.00;96225.03;5028838;28;20048;-60
2023/12/05 11:02:13;;;;;;;1.30;0.73;;;;;;;4.98;100.00;96227.00;5035106;28;20099;-61
2023/12/05 11:04:41;;;;;;;3.72;1.08;;;;;;;4.95;100.00;96229.09;5040113;28;20044;-61
2023/12/05 11:07:11;;;;;;;2.67;0.60;;;;;;;4.91;100.00;96219.13;5029239;28;20131;-60
2023/12/05 11:09:42;;;;;;;2.58;1.40;;;;;;;4.94;100.00;96222.13;5026777;28;20049;-61
2023/12/05 11:12:09;;;;;;;1.70;0.70;;;;;;;4.94;100.00;96218.63;5017825;28;20123;-63
2023/12/05 11:14:45;;;;;;;2.92;0.68;;;;;;;4.99;100.00;96218.72;5035126;28;20743;-62
2023/12/05 11:17:27;;;;;;;3.15;1.20;;;;;;;4.99;100.00;96212.53;5046939;28;20119;-62
2023/12/05 11:20:18;;;;;;;2.85;1.20;;;;;;;5.07;100.00;96220.16;5032642;28;20044;-62
2023/12/05 11:23:28;;;;;;;1.60;0.65;;;;;;;5.15;100.00;96213.56;5021597;28;20160;-61
2023/12/05 11:26:07;;;;;;;2.90;0.77;;;;;;;5.24;100.00;96213.97;5043863;28;20044;-61
2023/12/05 11:28:54;;;;;;;1.77;0.60;;;;;;;5.30;100.00;96223.69;5035651;28;20044;-60
2023/12/05 11:31:33;;;;;;;1.65;0.50;;;;;;;5.38;100.00;96217.91;5045047;28;20060;-60
2023/12/05 11:34:23;;;;;;;3.50;0.70;;;;;;;5.48;100.00;96225.31;5036479;28;20047;-60
2023/12/05 11:37:08;;;;;;;1.50;0.50;;;;;;;5.56;100.00;96224.88;5032925;28;20059;-61